createdAt,value
2023-03-16T00:02:05.427Z,101748.91
2023-03-16T00:04:32.242Z,101752.41
2023-03-16T00:06:58.752Z,101752.41
2023-03-16T00:09:25.147Z,101749.78
2023-03-16T00:11:51.554Z,101754.19
2023-03-16T00:14:17.995Z,101755.97
2023-03-16T00:16:44.493Z,101757.78
2023-03-16T00:19:10.952Z,101760.53
2023-03-16T00:21:37.354Z,101763.19
2023-03-16T00:24:03.910Z,101760.56
2023-03-16T00:26:30.357Z,101760.63
2023-03-16T00:28:57.011Z,101766.72
2023-03-16T00:31:23.408Z,101774.56
2023-03-16T00:33:49.878Z,101763.94
2023-03-16T00:36:16.392Z,101762.91
2023-03-16T00:38:42.921Z,101762.09
2023-03-16T00:41:09.457Z,101765.72
2023-03-16T00:43:36.889Z,101769.44
2023-03-16T00:46:03.365Z,101772.06
2023-03-16T00:48:29.844Z,101766.72
2023-03-16T00:50:56.325Z,101764.06
2023-03-16T00:53:22.741Z,101760.31
2023-03-16T00:55:49.187Z,101767.13
2023-03-16T00:58:15.619Z,101764.31
2023-03-16T01:00:42.038Z,101768.66
2023-03-16T01:03:08.480Z,101756.41
2023-03-16T01:05:36.068Z,101758.97
2023-03-16T01:08:02.540Z,101755.50
2023-03-16T01:10:29.307Z,101751.06
2023-03-16T01:12:56.034Z,101746.69
2023-03-16T01:15:22.760Z,101742.25
2023-03-16T01:17:49.158Z,101736.06
2023-03-16T01:20:15.730Z,101747.34
2023-03-16T01:22:42.218Z,101745.56
2023-03-16T01:25:10.729Z,101746.31
2023-03-16T01:27:37.137Z,101745.50
2023-03-16T01:30:04.898Z,101743.81
2023-03-16T01:32:31.471Z,101742.09
2023-03-16T01:34:57.949Z,101741.13
2023-03-16T01:37:24.396Z,101735.88
2023-03-16T01:39:50.813Z,101744.66
2023-03-16T01:42:17.316Z,101731.53
2023-03-16T01:44:57.712Z,101737.63
2023-03-16T01:47:24.217Z,101754.25
2023-03-16T01:49:51.601Z,101739.28
2023-03-16T01:52:20.078Z,101748.97
2023-03-16T01:55:03.533Z,101732.31
2023-03-16T01:57:34.450Z,101745.56
2023-03-16T02:00:14.082Z,101742.03
2023-03-16T02:02:40.517Z,101735.81
2023-03-16T02:11:57.228Z,101737.38
2023-03-16T02:14:23.660Z,101732.19
2023-03-16T02:16:50.067Z,101726.03
2023-03-16T02:19:21.157Z,101718.13
2023-03-16T02:21:59.600Z,101725.25
2023-03-16T02:24:26.088Z,101713.78
2023-03-16T02:26:57.926Z,101713.72
2023-03-16T02:29:57.588Z,101708.38
2023-03-16T02:32:24.485Z,101705.66
2023-03-16T02:34:50.965Z,101710.06
2023-03-16T02:37:17.369Z,101706.59
2023-03-16T02:39:43.828Z,101711.84
2023-03-16T02:42:15.879Z,101710.13
2023-03-16T02:44:42.556Z,101718.78
2023-03-16T02:47:41.842Z,101715.31
2023-03-16T02:50:09.475Z,101719.78
2023-03-16T02:52:36.309Z,101723.19
2023-03-16T02:55:03.285Z,101717.16
2023-03-16T02:57:29.705Z,101720.72
2023-03-16T02:59:56.149Z,101720.81
2023-03-16T03:02:22.561Z,101713.78
2023-03-16T03:04:49.029Z,101708.63
2023-03-16T03:07:15.693Z,101718.19
2023-03-16T03:09:42.246Z,101722.50
2023-03-16T03:12:09.506Z,101725.97
2023-03-16T03:14:36.137Z,101727.72
2023-03-16T03:17:02.570Z,101725.97
2023-03-16T03:19:28.999Z,101740.75
2023-03-16T03:21:55.416Z,101738.06
2023-03-16T03:24:21.903Z,101727.53
2023-03-16T03:26:48.353Z,101726.69
2023-03-16T03:29:14.742Z,101724.13
2023-03-16T03:31:41.254Z,101722.44
2023-03-16T03:34:07.722Z,101719.88
2023-03-16T03:36:34.317Z,101726.94
2023-03-16T03:39:00.914Z,101722.72
2023-03-16T03:41:27.329Z,101721.94
2023-03-16T03:43:53.737Z,101720.19
2023-03-16T03:46:20.329Z,101721.97
2023-03-16T03:48:46.793Z,101718.47
2023-03-16T03:51:13.393Z,101719.25
2023-03-16T03:53:39.782Z,101718.31
2023-03-16T03:56:06.469Z,101717.44
2023-03-16T03:58:32.926Z,101719.19
2023-03-16T04:00:59.342Z,101721.00
2023-03-16T04:03:25.862Z,101720.94
2023-03-16T04:05:52.288Z,101715.78
2023-03-16T04:08:18.723Z,101719.25
2023-03-16T04:10:45.117Z,101716.63
2023-03-16T04:13:11.551Z,101714.81
2023-03-16T04:15:37.950Z,101717.47
2023-03-16T04:18:04.507Z,101711.34
2023-03-16T04:20:30.918Z,101705.16
2023-03-16T04:22:57.347Z,101706.03
2023-03-16T04:25:24.293Z,101708.63
2023-03-16T04:27:50.690Z,101698.94
2023-03-16T04:30:17.149Z,101700.66
2023-03-16T04:32:43.602Z,101704.91
2023-03-16T04:35:10.106Z,101705.63
2023-03-16T04:37:36.660Z,101702.03
2023-03-16T04:40:03.558Z,101716.91
2023-03-16T04:42:30.018Z,101714.25
2023-03-16T04:44:56.437Z,101709.84
2023-03-16T04:47:22.869Z,101704.69
2023-03-16T04:49:49.323Z,101697.00
2023-03-16T04:52:15.783Z,101710.31
2023-03-16T04:54:42.315Z,101710.41
2023-03-16T04:57:08.729Z,101699.81
2023-03-16T04:59:35.204Z,101699.72
2023-03-16T05:02:01.628Z,101698.75
2023-03-16T05:04:28.048Z,101691.72
2023-03-16T05:06:54.450Z,101687.47
2023-03-16T05:09:20.914Z,101686.78
2023-03-16T05:11:47.353Z,101686.00
2023-03-16T05:14:13.794Z,101685.19
2023-03-16T05:16:40.228Z,101693.19
2023-03-16T05:19:06.632Z,101696.78
2023-03-16T05:21:33.040Z,101698.69
2023-03-16T05:23:59.513Z,101693.66
2023-03-16T05:26:25.957Z,101692.06
2023-03-16T05:28:52.389Z,101692.13
2023-03-16T05:31:19.137Z,101693.09
2023-03-16T05:33:45.648Z,101694.88
2023-03-16T05:36:12.068Z,101690.63
2023-03-16T05:38:38.572Z,101700.38
2023-03-16T05:41:06.031Z,101706.53
2023-03-16T05:43:32.605Z,101708.31
2023-03-16T05:45:59.058Z,101710.94
2023-03-16T05:48:25.494Z,101708.34
2023-03-16T05:50:52.126Z,101706.69
2023-03-16T05:53:18.805Z,101704.16
2023-03-16T05:55:45.342Z,101712.06
2023-03-16T05:58:11.876Z,101718.25
2023-03-16T06:00:38.294Z,101714.78
2023-03-16T06:03:04.886Z,101720.19
2023-03-16T06:05:31.312Z,101718.50
2023-03-16T06:07:57.745Z,101716.81
2023-03-16T06:10:24.262Z,101722.03
2023-03-16T06:12:50.690Z,101721.22
2023-03-16T06:15:17.130Z,101720.44
2023-03-16T06:17:43.533Z,101714.31
2023-03-16T06:20:11.591Z,101717.84
2023-03-16T06:22:38.926Z,101712.59
2023-03-16T06:25:05.953Z,101707.34
2023-03-16T06:27:32.338Z,101720.66
2023-03-16T06:29:58.812Z,101727.69
2023-03-16T06:32:25.254Z,101728.56
2023-03-16T06:34:51.720Z,101730.34
2023-03-16T06:37:18.122Z,101738.31
2023-03-16T06:39:44.545Z,101737.47
2023-03-16T06:42:11.124Z,101733.94
2023-03-16T06:44:37.524Z,101743.56
2023-03-16T06:47:04.320Z,101740.94
2023-03-16T06:49:30.927Z,101740.94
2023-03-16T06:51:57.375Z,101742.66
2023-03-16T06:54:26.407Z,101740.91
2023-03-16T06:56:55.362Z,101749.75
2023-03-16T06:59:23.361Z,101742.78
2023-03-16T07:01:49.922Z,101743.72
2023-03-16T07:04:16.642Z,101742.84
2023-03-16T07:06:43.139Z,101739.44
2023-03-16T07:09:09.625Z,101746.47
2023-03-16T07:11:36.076Z,101748.31
2023-03-16T07:14:02.620Z,101751.97
2023-03-16T07:16:29.131Z,101755.59
2023-03-16T07:18:55.636Z,101759.28
2023-03-16T07:21:22.036Z,101750.75
2023-03-16T07:23:48.461Z,101747.41
2023-03-16T07:26:14.936Z,101752.88
2023-03-16T07:28:41.450Z,101754.75
2023-03-16T07:31:07.894Z,101750.53
2023-03-16T07:33:34.555Z,101762.03
2023-03-16T07:36:01.104Z,101753.38
2023-03-16T07:38:27.617Z,101758.69
2023-03-16T07:40:55.335Z,101758.72
2023-03-16T07:43:21.768Z,101752.63
2023-03-16T07:45:51.322Z,101757.13
2023-03-16T07:48:17.940Z,101760.72
2023-03-16T07:50:44.585Z,101759.06
2023-03-16T07:53:10.997Z,101760.97
2023-03-16T07:55:37.435Z,101764.59
2023-03-16T07:58:03.830Z,101756.84
2023-03-16T08:00:30.949Z,101749.06
2023-03-16T08:02:57.898Z,101754.53
2023-03-16T08:05:27.226Z,101757.31
2023-03-16T08:07:54.474Z,101753.13
2023-03-16T08:10:23.263Z,101752.28
2023-03-16T08:12:50.841Z,101758.47
2023-03-16T08:15:17.494Z,101754.16
2023-03-16T08:17:43.958Z,101753.31
2023-03-16T08:20:11.361Z,101756.09
2023-03-16T08:22:39.010Z,101757.06
2023-03-16T08:25:06.378Z,101752.75
2023-03-16T08:27:33.034Z,101748.47
2023-03-16T08:29:59.696Z,101752.13
2023-03-16T08:32:26.217Z,101739.06
2023-03-16T08:34:52.710Z,101743.59
2023-03-16T08:37:19.188Z,101741.06
2023-03-16T08:39:45.623Z,101742.06
2023-03-16T08:42:12.235Z,101745.72
2023-03-16T08:44:38.667Z,101735.31
2023-03-16T08:47:05.736Z,101742.50
2023-03-16T08:49:32.188Z,101739.13
2023-03-16T08:51:58.661Z,101741.91
2023-03-16T08:54:25.135Z,101734.97
2023-03-16T08:56:51.547Z,101737.75
2023-03-16T08:59:29.181Z,101740.50
2023-03-16T09:01:56.445Z,101737.94
2023-03-16T09:04:23.094Z,101735.38
2023-03-16T09:07:02.365Z,101735.44
2023-03-16T09:09:34.297Z,101732.88
2023-03-16T09:12:01.027Z,101723.19
2023-03-16T09:14:27.597Z,101726.72
2023-03-16T09:16:54.065Z,101724.09
2023-03-16T09:19:20.550Z,101722.38
2023-03-16T09:21:47.502Z,101724.19
2023-03-16T09:24:16.293Z,101725.97
2023-03-16T09:26:42.800Z,101718.06
2023-03-16T09:29:09.477Z,101723.34
2023-03-16T09:31:35.915Z,101717.22
2023-03-16T09:34:02.458Z,101709.28
2023-03-16T09:36:28.933Z,101708.38
2023-03-16T09:38:55.900Z,101713.69
2023-03-16T09:41:38.414Z,101709.28
2023-03-16T09:44:26.643Z,101701.28
2023-03-16T09:46:53.072Z,101699.50
2023-03-16T09:49:20.461Z,101695.06
2023-03-16T09:52:06.347Z,101696.78
2023-03-16T09:54:52.927Z,101693.25
2023-03-16T09:57:24.969Z,101688.78
2023-03-16T09:59:51.808Z,101690.50
2023-03-16T10:02:49.090Z,101680.72
2023-03-16T10:05:20.321Z,101681.59
2023-03-16T10:08:24.138Z,101678.91
2023-03-16T10:13:47.860Z,101682.38
2023-03-16T10:16:17.746Z,101677.91
2023-03-16T10:18:46.811Z,101667.19
2023-03-16T10:21:15.036Z,101668.91
2023-03-16T10:23:42.123Z,101668.88
2023-03-16T10:26:26.174Z,101671.47
2023-03-16T10:28:52.614Z,101672.28
2023-03-16T10:31:21.419Z,101674.03
2023-03-16T10:33:47.877Z,101670.47
2023-03-16T10:36:14.468Z,101667.75
2023-03-16T10:38:40.809Z,101663.28
2023-03-16T10:41:20.805Z,101658.78
2023-03-16T10:43:51.393Z,101661.44
2023-03-16T10:46:18.028Z,101656.16
2023-03-16T10:49:04.797Z,101654.38
2023-03-16T10:51:33.583Z,101648.13
2023-03-16T10:54:33.726Z,101652.41
2023-03-16T10:57:00.136Z,101647.88
2023-03-16T10:59:32.077Z,101650.47
2023-03-16T11:01:58.911Z,101643.31
2023-03-16T11:04:25.662Z,101632.66
2023-03-16T11:06:56.340Z,101631.75
2023-03-16T11:09:24.860Z,101624.66
2023-03-16T11:11:51.588Z,101616.53
2023-03-16T11:14:20.510Z,101619.16
2023-03-16T11:17:03.772Z,101614.66
2023-03-16T11:19:34.093Z,101617.31
2023-03-16T11:22:17.063Z,101607.53
2023-03-16T11:24:49.624Z,101605.72
2023-03-16T11:27:24.031Z,101602.19
2023-03-16T11:29:58.974Z,101603.06
2023-03-16T11:32:27.805Z,101605.53
2023-03-16T11:34:54.252Z,101613.47
2023-03-16T11:37:44.072Z,101597.50
2023-03-16T11:40:28.768Z,101600.34
2023-03-16T11:43:10.412Z,101599.50
2023-03-16T11:45:44.228Z,101594.97
2023-03-16T11:48:42.915Z,101588.72
2023-03-16T11:51:48.122Z,101572.75
2023-03-16T11:54:14.422Z,101563.88
2023-03-16T11:56:50.053Z,101554.88
2023-03-16T11:59:28.625Z,101560.91
2023-03-16T12:02:01.336Z,101563.41
2023-03-16T12:05:06.217Z,101543.88
2023-03-16T12:07:41.473Z,101555.25
2023-03-16T12:10:46.473Z,101547.84
2023-03-16T12:13:34.261Z,101542.31
2023-03-16T12:16:04.457Z,101551.03
2023-03-16T12:19:01.537Z,101543.03
2023-03-16T12:21:39.460Z,101555.25
2023-03-16T12:24:06.797Z,101541.09
2023-03-16T12:26:39.293Z,101533.94
2023-03-16T12:29:32.750Z,101532.13
2023-03-16T12:32:40.362Z,101522.16
2023-03-16T12:35:27.310Z,101508.47
2023-03-16T12:38:12.449Z,101511.56
2023-03-16T12:40:43.342Z,101515.59
2023-03-16T12:43:31.771Z,101510.66
2023-03-16T12:46:07.646Z,101496.84
2023-03-16T12:48:38.030Z,101499.13
2023-03-16T12:51:04.733Z,101486.34
2023-03-16T12:53:50.444Z,101482.66
2023-03-16T12:56:18.154Z,101489.88
2023-03-16T12:58:49.371Z,101482.56
2023-03-16T13:01:19.234Z,101485.41
2023-03-16T13:03:47.761Z,101477.56
2023-03-16T13:06:21.726Z,101476.81
2023-03-16T13:08:51.549Z,101475.97
2023-03-16T13:11:18.108Z,101467.00
2023-03-16T13:14:05.970Z,101458.13
2023-03-16T13:16:33.366Z,101465.13
2023-03-16T13:18:59.856Z,101456.97
2023-03-16T13:21:41.964Z,101453.44
2023-03-16T13:24:25.487Z,101455.50
2023-03-16T13:26:53.283Z,101454.66
2023-03-16T13:29:25.531Z,101461.06
2023-03-16T13:31:52.341Z,101444.72
2023-03-16T13:34:23.965Z,101446.44
2023-03-16T13:36:53.740Z,101442.63
2023-03-16T13:39:21.551Z,101429.69
2023-03-16T13:42:04.299Z,101429.09
2023-03-16T13:44:31.237Z,101431.97
2023-03-16T13:47:02.265Z,101431.28
2023-03-16T13:49:28.709Z,101426.25
2023-03-16T13:51:55.143Z,101418.47
2023-03-16T13:54:25.236Z,101424.91
2023-03-16T13:56:52.661Z,101425.03
2023-03-16T13:59:19.874Z,101422.47
2023-03-16T14:01:46.714Z,101428.78
2023-03-16T14:04:13.200Z,101420.84
2023-03-16T14:06:39.791Z,101407.69
2023-03-16T14:09:17.150Z,101420.25
2023-03-16T14:11:43.599Z,101414.97
2023-03-16T14:14:17.125Z,101411.44
2023-03-16T14:16:46.678Z,101405.28
2023-03-16T14:19:25.872Z,101400.91
2023-03-16T14:21:52.331Z,101405.31
2023-03-16T14:24:31.045Z,101376.94
2023-03-16T14:26:57.706Z,101389.22
2023-03-16T14:29:29.355Z,101373.81
2023-03-16T14:31:56.091Z,101377.91
2023-03-16T14:34:29.530Z,101373.13
2023-03-16T14:37:06.620Z,101368.28
2023-03-16T14:39:33.395Z,101368.59
2023-03-16T14:42:02.312Z,101367.50
2023-03-16T14:44:30.915Z,101355.03
2023-03-16T14:46:57.343Z,101357.72
2023-03-16T14:49:31.672Z,101348.78
2023-03-16T14:52:02.909Z,101337.19
2023-03-16T14:54:29.736Z,101344.25
2023-03-16T14:57:00.525Z,101335.66
2023-03-16T14:59:27.177Z,101327.59
2023-03-16T15:01:53.830Z,101328.41
2023-03-16T15:04:28.651Z,101327.28
2023-03-16T15:06:55.187Z,101325.09
2023-03-16T15:09:29.386Z,101313.06
2023-03-16T15:11:55.837Z,101308.84
2023-03-16T15:14:22.269Z,101306.34
2023-03-16T15:16:48.709Z,101302.91
2023-03-16T15:19:15.781Z,101310.09
2023-03-16T15:21:42.204Z,101304.00
2023-03-16T15:24:10.344Z,101297.84
2023-03-16T15:26:36.819Z,101286.34
2023-03-16T15:29:03.256Z,101295.31
2023-03-16T15:31:29.826Z,101302.47
2023-03-16T15:33:56.302Z,101298.97
2023-03-16T15:36:22.782Z,101281.31
2023-03-16T15:38:50.521Z,101289.31
2023-03-16T15:41:16.989Z,101301.72
2023-03-16T15:43:43.917Z,101291.16
2023-03-16T15:46:10.380Z,101295.69
2023-03-16T15:48:36.911Z,101289.56
2023-03-16T15:51:14.891Z,101294.00
2023-03-16T15:53:43.641Z,101296.75
2023-03-16T15:56:12.180Z,101294.09
2023-03-16T15:58:40.225Z,101277.31
2023-03-16T16:01:06.853Z,101279.97
2023-03-16T16:03:33.325Z,101268.47
2023-03-16T16:05:59.788Z,101275.63
2023-03-16T16:08:26.224Z,101274.75
2023-03-16T16:10:52.708Z,101272.16
2023-03-16T16:13:43.004Z,101267.78
2023-03-16T16:16:14.510Z,101268.66
2023-03-16T16:18:41.117Z,101268.69
2023-03-16T16:21:09.685Z,101275.78
2023-03-16T16:23:36.198Z,101284.69
2023-03-16T16:26:04.116Z,101289.25
2023-03-16T16:28:31.952Z,101279.56
2023-03-16T16:30:59.372Z,101285.78
2023-03-16T16:33:31.754Z,101277.81
2023-03-16T16:35:59.412Z,101262.81
2023-03-16T16:38:25.906Z,101264.56
2023-03-16T16:40:52.980Z,101263.72
2023-03-16T16:43:26.318Z,101270.84
2023-03-16T16:45:52.750Z,101260.31
2023-03-16T16:48:30.872Z,101257.69
2023-03-16T16:50:58.254Z,101261.22
2023-03-16T16:53:24.663Z,101254.25
2023-03-16T16:55:51.067Z,101254.31
2023-03-16T16:58:24.190Z,101256.06
2023-03-16T17:00:57.731Z,101244.50
2023-03-16T17:03:28.093Z,101243.69
2023-03-16T17:05:55.820Z,101233.16
2023-03-16T17:08:22.267Z,101229.66
2023-03-16T17:10:48.696Z,101227.91
2023-03-16T17:13:29.368Z,101220.94
2023-03-16T17:15:55.830Z,101229.78
2023-03-16T17:18:22.384Z,101241.34
2023-03-16T17:20:49.196Z,101246.75
2023-03-16T17:23:31.867Z,101246.78
2023-03-16T17:25:59.443Z,101251.31
2023-03-16T17:28:26.026Z,101244.22
2023-03-16T17:30:52.504Z,101252.19
2023-03-16T17:33:18.968Z,101265.47
2023-03-16T17:35:46.850Z,101251.28
2023-03-16T17:38:20.086Z,101258.38
2023-03-16T17:40:46.599Z,101260.19
2023-03-16T17:43:17.128Z,101256.66
2023-03-16T17:45:44.683Z,101249.59
2023-03-16T17:48:16.065Z,101247.91
2023-03-16T17:50:43.585Z,101243.53
2023-03-16T17:53:09.992Z,101237.34
2023-03-16T17:55:36.418Z,101233.84
2023-03-16T17:58:02.849Z,101240.94
2023-03-16T18:00:30.248Z,101236.44
2023-03-16T18:03:03.644Z,101229.34
2023-03-16T18:05:34.400Z,101224.16
2023-03-16T18:08:07.122Z,101211.75
2023-03-16T18:10:33.599Z,101212.63
2023-03-16T18:13:04.977Z,101210.88
2023-03-16T18:15:32.781Z,101203.81
2023-03-16T18:17:59.373Z,101202.09
2023-03-16T18:20:28.449Z,101193.34
2023-03-16T18:22:54.942Z,101202.25
2023-03-16T18:25:51.438Z,101204.00
2023-03-16T18:28:18.287Z,101197.78
2023-03-16T18:30:46.906Z,101201.31
2023-03-16T18:33:29.378Z,101199.56
2023-03-16T18:35:57.504Z,101204.91
2023-03-16T18:38:26.684Z,101203.16
2023-03-16T18:40:53.103Z,101195.13
2023-03-16T18:43:19.680Z,101201.38
2023-03-16T18:45:46.111Z,101196.09
2023-03-16T18:48:29.331Z,101195.25
2023-03-16T18:50:56.899Z,101194.34
2023-03-16T18:53:23.332Z,101197.88
2023-03-16T18:55:50.102Z,101197.91
2023-03-16T18:58:21.208Z,101197.97
2023-03-16T19:00:54.514Z,101184.72
2023-03-16T19:03:31.625Z,101187.38
2023-03-16T19:05:58.328Z,101176.78
2023-03-16T19:08:25.345Z,101173.31
2023-03-16T19:10:54.138Z,101183.00
2023-03-16T19:13:21.090Z,101172.47
2023-03-16T19:15:49.602Z,101174.25
2023-03-16T19:18:16.143Z,101173.34
2023-03-16T19:20:43.628Z,101166.28
2023-03-16T19:23:22.482Z,101169.84
2023-03-16T19:25:55.902Z,101184.06
2023-03-16T19:28:31.455Z,101175.22
2023-03-16T19:30:57.919Z,101173.47
2023-03-16T19:33:27.858Z,101172.59
2023-03-16T19:35:55.490Z,101172.56
2023-03-16T19:38:22.890Z,101166.41
2023-03-16T19:40:52.540Z,101152.28
2023-03-16T19:43:19.615Z,101140.75
2023-03-16T19:45:46.510Z,101134.53
2023-03-16T19:48:17.355Z,101145.13
2023-03-16T19:50:43.828Z,101136.31
2023-03-16T19:53:20.629Z,101137.22
2023-03-16T19:55:47.349Z,101133.75
2023-03-16T19:58:36.120Z,101142.63
2023-03-16T20:01:02.696Z,101137.31
2023-03-16T20:03:37.276Z,101137.34
2023-03-16T20:06:03.846Z,101139.19
2023-03-16T20:08:30.280Z,101135.66
2023-03-16T20:11:00.877Z,101135.69
2023-03-16T20:13:27.562Z,101132.13
2023-03-16T20:15:54.112Z,101130.34
2023-03-16T20:18:24.419Z,101140.03
2023-03-16T20:20:50.863Z,101125.88
2023-03-16T20:23:22.740Z,101123.22
2023-03-16T20:25:49.270Z,101120.63
2023-03-16T20:28:20.666Z,101112.69
2023-03-16T20:30:47.484Z,101112.72
2023-03-16T20:33:22.717Z,101112.72
2023-03-16T20:35:50.463Z,101112.78
2023-03-16T20:38:17.151Z,101111.06
2023-03-16T20:40:44.405Z,101100.53
2023-03-16T20:43:30.908Z,101101.44
2023-03-16T20:45:59.265Z,101092.63
2023-03-16T20:48:27.506Z,101082.88
2023-03-16T20:50:54.609Z,101085.53
2023-03-16T20:56:11.552Z,101086.53
2023-03-16T20:58:38.057Z,101083.00
2023-03-16T21:01:04.803Z,101086.53
2023-03-16T21:03:33.797Z,101082.97
2023-03-16T21:06:00.289Z,101073.28
2023-03-16T21:08:28.626Z,101067.16
2023-03-16T21:10:55.151Z,101060.97
2023-03-16T21:13:29.573Z,101067.09
2023-03-16T21:15:58.548Z,101058.34
2023-03-16T21:18:25.526Z,101059.25
2023-03-16T21:20:52.210Z,101064.53
2023-03-16T21:23:20.836Z,101063.66
2023-03-16T21:26:18.118Z,101053.06
2023-03-16T21:28:45.059Z,101045.97
2023-03-16T21:31:19.580Z,101044.22
2023-03-16T21:33:47.214Z,101036.28
2023-03-16T21:36:16.055Z,101045.97
2023-03-16T21:38:42.702Z,101038.94
2023-03-16T21:41:09.193Z,101040.69
2023-03-16T21:43:35.657Z,101038.03
2023-03-16T21:46:02.960Z,101030.97
2023-03-16T21:48:37.139Z,101032.81
2023-03-16T21:51:05.702Z,101037.22
2023-03-16T21:53:32.182Z,101030.16
2023-03-16T21:55:58.728Z,101046.03
2023-03-16T21:58:25.163Z,101036.34
2023-03-16T22:00:52.140Z,101029.28
2023-03-16T22:03:22.549Z,101024.84
2023-03-16T22:05:49.038Z,101022.13
2023-03-16T22:08:30.205Z,101026.63
2023-03-16T22:10:56.839Z,101028.38
2023-03-16T22:13:23.436Z,101028.38
2023-03-16T22:15:50.620Z,101030.16
2023-03-16T22:18:32.017Z,101023.97
2023-03-16T22:20:58.943Z,101029.28
2023-03-16T22:23:33.243Z,101024.91
2023-03-16T22:26:01.114Z,101028.44
2023-03-16T22:28:28.190Z,101020.47
2023-03-16T22:30:54.766Z,101019.59
2023-03-16T22:33:24.681Z,101015.19
2023-03-16T22:35:51.197Z,101016.06
2023-03-16T22:38:17.704Z,101008.13
2023-03-16T22:40:44.128Z,101019.59
2023-03-16T22:43:18.222Z,101009.03
2023-03-16T22:45:44.746Z,101013.44
2023-03-16T22:48:18.913Z,101000.25
2023-03-16T22:50:45.629Z,101004.66
2023-03-16T22:53:12.150Z,101001.13
2023-03-16T22:55:39.172Z,100991.41
2023-03-16T22:58:27.427Z,100986.09
2023-03-16T23:00:53.883Z,100982.59
2023-03-16T23:03:21.400Z,100978.19
2023-03-16T23:05:48.068Z,100974.69
2023-03-16T23:08:19.395Z,100978.28
2023-03-16T23:10:45.805Z,100973.84
2023-03-16T23:13:17.213Z,100958.84
2023-03-16T23:15:44.822Z,100956.22
2023-03-16T23:18:20.626Z,100952.63
2023-03-16T23:20:47.055Z,100947.31
2023-03-16T23:23:14.037Z,100961.50
2023-03-16T23:25:40.469Z,100950.91
2023-03-16T23:28:06.994Z,100955.25
2023-03-16T23:30:33.558Z,100957.03
2023-03-16T23:33:00.171Z,100961.47
2023-03-16T23:35:30.620Z,100956.22
2023-03-16T23:37:57.158Z,100957.09
2023-03-16T23:40:25.074Z,100953.59
2023-03-16T23:42:51.485Z,100945.66
2023-03-16T23:45:28.496Z,100939.47
2023-03-16T23:47:55.485Z,100935.97
2023-03-16T23:50:24.579Z,100941.31
2023-03-16T23:52:51.007Z,100936.00
2023-03-16T23:55:17.723Z,100938.66
2023-03-16T23:57:44.216Z,100931.59
